createdAt,value
2019-04-11T00:01:32.549Z,101608.85
2019-04-11T00:06:27.612Z,101612.82
2019-04-11T00:11:31.949Z,101619.58
2019-04-11T00:16:37.139Z,101625.75
2019-04-11T00:21:41.605Z,101623.41
2019-04-11T00:26:46.588Z,101620.70
2019-04-11T00:31:50.788Z,101631.11
2019-04-11T00:36:54.970Z,101638.23
2019-04-11T00:41:59.175Z,101639.71
2019-04-11T00:47:03.412Z,101637.52
2019-04-11T00:52:08.635Z,101640.96
2019-04-11T00:57:12.917Z,101641.53
2019-04-11T01:02:17.735Z,101639.17
2019-04-11T01:07:22.771Z,101645.16
2019-04-11T01:12:27.111Z,101649.48
2019-04-11T01:17:31.591Z,101650.78
2019-04-11T01:22:35.813Z,101653.23
2019-04-11T01:27:41.151Z,101655.03
2019-04-11T01:32:46.467Z,101655.89
2019-04-11T01:37:50.786Z,101650.87
2019-04-11T01:42:55.528Z,101655.62
2019-04-11T01:48:15.364Z,101649.34
2019-04-11T01:53:19.630Z,101656.31
2019-04-11T01:58:24.621Z,101658.27
2019-04-11T02:03:39.315Z,101661.41
2019-04-11T02:08:43.860Z,101666.05
2019-04-11T02:13:48.259Z,101667.73
2019-04-11T02:18:52.480Z,101670.33
2019-04-11T02:24:02.304Z,101681.31
2019-04-11T02:29:06.891Z,101678.54
2019-04-11T02:34:11.850Z,101684.13
2019-04-11T02:39:19.606Z,101688.20
2019-04-11T02:44:49.642Z,101688.77
2019-04-11T02:49:30.946Z,101690.61
2019-04-11T02:54:36.615Z,101693.72
2019-04-11T02:59:44.459Z,101691.67
2019-04-11T03:04:48.175Z,101700.01
2019-04-11T03:09:53.549Z,101695.13
2019-04-11T03:15:16.121Z,101707.65
2019-04-11T03:20:15.458Z,101706.85
2019-04-11T03:25:11.705Z,101710.86
2019-04-11T03:30:24.937Z,101714.68
2019-04-11T03:40:48.132Z,101721.45
2019-04-11T03:45:56.286Z,101724.69
2019-04-11T03:50:42.467Z,101727.12
2019-04-11T03:55:47.499Z,101729.76
2019-04-11T04:00:53.618Z,101725.50
2019-04-11T04:05:59.945Z,101728.57
2019-04-11T04:11:19.021Z,101732.97
2019-04-11T04:16:40.347Z,101734.58
2019-04-11T04:21:47.099Z,101743.41
2019-04-11T04:26:52.609Z,101753.19
2019-04-11T04:31:59.365Z,101754.08
2019-04-11T04:37:05.730Z,101760.07
2019-04-11T04:42:21.168Z,101767.64
2019-04-11T04:47:23.676Z,101771.20
2019-04-11T04:52:22.297Z,101774.60
2019-04-11T04:57:26.851Z,101776.95
2019-04-11T05:02:32.764Z,101789.73
2019-04-11T05:07:40.414Z,101784.67
2019-04-11T05:12:43.981Z,101797.11
2019-04-11T05:17:49.168Z,101794.66
2019-04-11T05:22:53.651Z,101801.20
2019-04-11T05:27:58.177Z,101806.20
2019-04-11T05:33:02.413Z,101811.95
2019-04-11T05:38:06.613Z,101811.13
2019-04-11T05:43:11.460Z,101825.38
2019-04-11T05:48:34.836Z,101827.98
2019-04-11T05:53:39.032Z,101832.88
2019-04-11T05:58:45.724Z,101835.30
2019-04-11T06:03:50.938Z,101832.20
2019-04-11T06:09:00.612Z,101833.16
2019-04-11T06:14:15.456Z,101837.98
2019-04-11T06:19:54.039Z,101844.22
2019-04-11T06:25:19.290Z,101839.05
2019-04-11T06:30:42.355Z,101840.76
2019-04-11T06:36:21.051Z,101843.98
2019-04-11T06:41:46.989Z,101853.59
2019-04-11T06:47:16.696Z,101848.05
2019-04-11T06:52:21.032Z,101850.26
2019-04-11T06:57:27.074Z,101853.58
2019-04-11T07:02:32.215Z,101852.55
2019-04-11T07:07:37.675Z,101860.45
2019-04-11T07:12:47.158Z,101862.45
2019-04-11T07:18:09.856Z,101866.68
2019-04-11T07:23:32.918Z,101871.39
2019-04-11T07:28:54.945Z,101874.18
2019-04-11T07:34:31.451Z,101873.20
2019-04-11T07:39:56.219Z,101869.28
2019-04-11T07:45:04.232Z,101879.60
2019-04-11T07:50:10.015Z,101872.42
2019-04-11T07:55:14.305Z,101879.39
2019-04-11T08:00:44.250Z,101877.42
2019-04-11T08:06:17.437Z,101872.59
2019-04-11T08:11:36.027Z,101888.21
2019-04-11T08:17:28.187Z,101878.25
2019-04-11T08:22:33.079Z,101881.09
2019-04-11T08:27:55.949Z,101889.05
2019-04-11T08:32:55.269Z,101885.06
2019-04-11T08:38:02.798Z,101900.73
2019-04-11T08:43:09.281Z,101888.30
2019-04-11T08:48:13.521Z,101889.70
2019-04-11T08:53:35.091Z,101879.12
2019-04-11T08:58:57.278Z,101881.25
2019-04-11T09:04:32.642Z,101890.84
2019-04-11T09:10:04.678Z,101892.64
2019-04-11T09:15:28.695Z,101887.83
2019-04-11T09:20:55.943Z,101877.63
2019-04-11T09:26:20.207Z,101873.80
2019-04-11T09:31:42.217Z,101875.48
2019-04-11T09:37:05.703Z,101880.92
2019-04-11T09:42:28.855Z,101882.27
2019-04-11T09:47:51.922Z,101886.58
2019-04-11T09:52:56.419Z,101878.23
2019-04-11T09:58:01.368Z,101877.63
2019-04-11T10:03:25.608Z,101881.36
2019-04-11T10:08:49.245Z,101889.31
2019-04-11T10:14:09.139Z,101891.81
2019-04-11T10:19:31.736Z,101884.37
2019-04-11T10:24:55.023Z,101888.11
2019-04-11T10:30:17.397Z,101885.06
2019-04-11T10:35:40.681Z,101890.83
2019-04-11T10:41:13.049Z,101890.19
2019-04-11T10:46:36.213Z,101900.73
2019-04-11T10:51:50.018Z,101893.71
2019-04-11T10:57:16.281Z,101903.57
2019-04-11T11:02:37.740Z,101896.75
2019-04-11T11:07:44.605Z,101894.36
2019-04-11T11:13:18.020Z,101890.55
2019-04-11T11:19:15.586Z,101891.58
2019-04-11T11:24:09.281Z,101887.31
2019-04-11T11:29:45.706Z,101899.33
2019-04-11T11:34:57.223Z,101902.95
2019-04-11T11:40:38.297Z,101911.10
2019-04-11T11:46:01.146Z,101914.51
2019-04-11T11:51:10.906Z,101920.81
2019-04-11T11:56:15.901Z,101919.80
2019-04-11T12:01:20.176Z,101926.85
2019-04-11T12:06:25.192Z,101923.90
2019-04-11T12:11:30.342Z,101927.05
2019-04-11T12:17:03.292Z,101931.39
2019-04-11T12:22:06.219Z,101932.13
2019-04-11T12:27:29.448Z,101926.47
2019-04-11T12:32:34.747Z,101916.08
2019-04-11T12:37:43.855Z,101910.70
2019-04-11T12:42:48.020Z,101912.03
2019-04-11T12:47:55.347Z,101908.69
2019-04-11T12:53:10.349Z,101899.98
2019-04-11T12:58:33.522Z,101904.91
2019-04-11T13:03:55.721Z,101895.88
2019-04-11T13:09:16.990Z,101904.31
2019-04-11T13:14:38.862Z,101892.66
2019-04-11T13:20:11.327Z,101907.09
2019-04-11T13:25:33.691Z,101902.61
2019-04-11T13:30:57.707Z,101909.13
2019-04-11T13:36:23.643Z,101907.80
2019-04-11T13:41:59.026Z,101913.53
2019-04-11T13:47:11.225Z,101911.59
2019-04-11T13:52:34.374Z,101900.53
2019-04-11T13:57:57.569Z,101899.55
2019-04-11T14:03:18.868Z,101902.41
2019-04-11T14:08:27.379Z,101900.35
2019-04-11T14:13:38.976Z,101891.28
2019-04-11T14:19:07.044Z,101899.09
2019-04-11T14:24:24.262Z,101889.45
2019-04-11T14:29:59.538Z,101894.00
2019-04-11T14:35:22.757Z,101888.52
2019-04-11T14:40:33.534Z,101895.82
2019-04-11T14:45:55.738Z,101896.62
2019-04-11T14:51:15.989Z,101904.81
2019-04-11T14:56:21.804Z,101902.97
2019-04-11T15:01:27.923Z,101900.51
2019-04-11T15:06:34.535Z,101895.87
2019-04-11T15:11:53.014Z,101897.52
2019-04-11T15:17:10.682Z,101901.78
2019-04-11T15:22:24.339Z,101893.74
2019-04-11T15:28:07.976Z,101896.62
2019-04-11T15:33:30.903Z,101909.14
2019-04-11T15:38:47.877Z,101901.50
2019-04-11T15:44:11.715Z,101906.51
2019-04-11T15:49:33.975Z,101904.84
2019-04-11T15:54:57.141Z,101909.66
2019-04-11T16:00:29.457Z,101904.02
2019-04-11T16:05:52.614Z,101905.03
2019-04-11T16:11:14.515Z,101910.34
2019-04-11T16:16:20.350Z,101915.02
2019-04-11T16:21:32.836Z,101908.19
2019-04-11T16:26:50.396Z,101917.98
2019-04-11T16:31:55.836Z,101921.32
2019-04-11T16:37:02.867Z,101912.16
2019-04-11T16:42:10.086Z,101924.64
2019-04-11T16:47:31.535Z,101928.64
2019-04-11T16:52:38.582Z,101923.27
2019-04-11T16:57:44.259Z,101929.09
2019-04-11T17:02:49.246Z,101922.28
2019-04-11T17:08:15.161Z,101922.84
2019-04-11T17:13:19.394Z,101921.86
2019-04-11T17:18:23.635Z,101930.77
2019-04-11T17:23:27.863Z,101928.06
2019-04-11T17:28:32.182Z,101938.35
2019-04-11T17:33:36.375Z,101939.36
2019-04-11T17:38:40.605Z,101945.95
2019-04-11T17:43:47.040Z,101959.16
2019-04-11T17:48:50.738Z,101963.75
2019-04-11T17:53:55.654Z,101964.25
2019-04-11T17:59:00.158Z,101973.66
2019-04-11T18:04:04.792Z,101974.45
2019-04-11T18:09:12.086Z,101977.57
2019-04-11T18:14:16.308Z,101991.70
2019-04-11T18:19:20.585Z,101987.53
2019-04-11T18:24:24.839Z,101999.27
2019-04-11T18:29:29.146Z,102007.42
2019-04-11T18:34:34.384Z,102014.06
2019-04-11T18:39:38.897Z,102017.84
2019-04-11T18:44:43.159Z,102024.22
2019-04-11T18:49:47.397Z,102020.66
2019-04-11T18:54:51.690Z,102031.27
2019-04-11T18:59:55.977Z,102033.53
2019-04-11T19:05:02.101Z,102032.70
2019-04-11T19:10:07.894Z,102027.25
2019-04-11T19:15:13.801Z,102031.88
2019-04-11T19:20:19.797Z,102036.28
2019-04-11T19:25:24.658Z,102036.08
2019-04-11T19:30:29.114Z,102030.78
2019-04-11T19:35:33.978Z,102039.05
2019-04-11T19:40:38.627Z,102037.45
2019-04-11T19:45:43.371Z,102039.84
2019-04-11T19:50:47.846Z,102041.34
2019-04-11T19:56:11.037Z,102044.58
2019-04-11T20:01:15.374Z,102039.80
2019-04-11T20:06:19.594Z,102040.82
2019-04-11T20:11:23.841Z,102035.02
2019-04-11T20:16:28.051Z,102035.02
2019-04-11T20:21:32.272Z,102025.93
2019-04-11T20:26:36.499Z,102039.84
2019-04-11T20:31:40.848Z,102045.92
2019-04-11T20:36:45.115Z,102046.77
2019-04-11T20:41:53.242Z,102045.45
2019-04-11T20:46:55.384Z,102040.97
2019-04-11T20:51:59.597Z,102046.84
2019-04-11T20:57:03.817Z,102042.68
2019-04-11T21:02:08.106Z,102046.00
2019-04-11T21:07:12.356Z,102048.66
2019-04-11T21:12:18.189Z,102043.90
2019-04-11T21:17:22.398Z,102039.72
2019-04-11T21:22:26.610Z,102047.50
2019-04-11T21:27:30.836Z,102041.30
2019-04-11T21:32:35.036Z,102042.78
2019-04-11T21:37:39.243Z,102042.67
2019-04-11T21:42:43.441Z,102046.17
2019-04-11T21:47:47.635Z,102046.02
2019-04-11T21:52:51.854Z,102047.24
2019-04-11T21:57:56.086Z,102043.33
2019-04-11T22:03:00.279Z,102052.34
2019-04-11T22:08:04.469Z,102056.02
2019-04-11T22:13:10.093Z,102056.23
2019-04-11T22:18:16.724Z,102056.17
2019-04-11T22:23:20.606Z,102058.44
2019-04-11T22:28:25.150Z,102055.88
2019-04-11T22:33:42.708Z,102048.88
2019-04-11T22:38:46.906Z,102053.87
2019-04-11T22:43:51.109Z,102053.96
2019-04-11T22:48:55.294Z,102054.05
2019-04-11T22:54:00.575Z,102052.31
2019-04-11T22:59:05.050Z,102050.34
2019-04-11T23:04:09.251Z,102050.37
2019-04-11T23:09:13.489Z,102053.38
2019-04-11T23:14:17.686Z,102050.96
2019-04-11T23:19:21.899Z,102056.91
2019-04-11T23:24:26.075Z,102052.55
2019-04-11T23:29:30.273Z,102043.83
2019-04-11T23:34:34.489Z,102050.57
2019-04-11T23:39:38.668Z,102051.75
2019-04-11T23:44:42.881Z,102045.86
2019-04-11T23:49:47.093Z,102046.60
2019-04-11T23:54:51.319Z,102053.09
2019-04-11T23:59:55.498Z,102048.09
